sensor_id;sensor_type;location;lat;lon;timestamp;pressure;altitude;pressure_sealevel;temperature;humidity
7802;BME280;3945;48.952;9.506;2023-04-15T00:01:26;96985.50;;;5.34;84.70
7802;BME280;3945;48.952;9.506;2023-04-15T00:03:54;96990.53;;;5.36;84.97
7802;BME280;3945;48.952;9.506;2023-04-15T00:06:20;96985.03;;;5.37;85.04
7802;BME280;3945;48.952;9.506;2023-04-15T00:08:47;96985.03;;;5.37;84.94
7802;BME280;3945;48.952;9.506;2023-04-15T00:11:14;96986.06;;;5.36;84.86
7802;BME280;3945;48.952;9.506;2023-04-15T00:13:41;96982.63;;;5.36;85.00
7802;BME280;3945;48.952;9.506;2023-04-15T00:16:07;96984.47;;;5.35;84.86
7802;BME280;3945;48.952;9.506;2023-04-15T00:18:35;96984.69;;;5.34;84.65
7802;BME280;3945;48.952;9.506;2023-04-15T00:21:03;96981.03;;;5.35;84.98
7802;BME280;3945;48.952;9.506;2023-04-15T00:23:29;96989.16;;;5.33;85.27
7802;BME280;3945;48.952;9.506;2023-04-15T00:25:56;96982.63;;;5.36;85.07
7802;BME280;3945;48.952;9.506;2023-04-15T00:28:22;96985.84;;;5.38;85.44
7802;BME280;3945;48.952;9.506;2023-04-15T00:30:49;96980.22;;;5.34;85.32
7802;BME280;3945;48.952;9.506;2023-04-15T00:33:15;96985.50;;;5.34;84.94
7802;BME280;3945;48.952;9.506;2023-04-15T00:35:43;96985.16;;;5.31;84.99
7802;BME280;3945;48.952;9.506;2023-04-15T00:38:09;96975.19;;;5.33;84.90
7802;BME280;3945;48.952;9.506;2023-04-15T00:40:36;96977.34;;;5.36;84.76
7802;BME280;3945;48.952;9.506;2023-04-15T00:43:02;96973.09;;;5.35;84.97
7802;BME280;3945;48.952;9.506;2023-04-15T00:45:29;96982.84;;;5.34;85.23
7802;BME280;3945;48.952;9.506;2023-04-15T00:47:55;96974.94;;;5.34;85.25
7802;BME280;3945;48.952;9.506;2023-04-15T00:50:22;96981.50;;;5.32;85.29
7802;BME280;3945;48.952;9.506;2023-04-15T00:52:50;96973.22;;;5.28;85.17
7802;BME280;3945;48.952;9.506;2023-04-15T00:55:16;96978.50;;;5.28;86.11
7802;BME280;3945;48.952;9.506;2023-04-15T00:57:43;96980.34;;;5.28;85.98
7802;BME280;3945;48.952;9.506;2023-04-15T01:00:10;96974.84;;;5.29;86.31
7802;BME280;3945;48.952;9.506;2023-04-15T01:02:36;96977.84;;;5.33;86.37
7802;BME280;3945;48.952;9.506;2023-04-15T01:05:03;96975.41;;;5.31;86.31
7802;BME280;3945;48.952;9.506;2023-04-15T01:07:30;96977.03;;;5.32;86.21
7802;BME280;3945;48.952;9.506;2023-04-15T01:09:57;96965.78;;;5.25;86.38
7802;BME280;3945;48.952;9.506;2023-04-15T01:12:24;96966.03;;;5.24;86.25
7802;BME280;3945;48.952;9.506;2023-04-15T01:14:52;96961.19;;;5.21;86.17
7802;BME280;3945;48.952;9.506;2023-04-15T01:17:18;96963.94;;;5.14;86.05
7802;BME280;3945;48.952;9.506;2023-04-15T01:19:44;96965.09;;;5.06;86.01
7802;BME280;3945;48.952;9.506;2023-04-15T01:22:11;96967.25;;;4.98;86.02
7802;BME280;3945;48.952;9.506;2023-04-15T01:24:37;96967.84;;;4.88;86.26
7802;BME280;3945;48.952;9.506;2023-04-15T01:27:05;96961.88;;;4.81;86.70
7802;BME280;3945;48.952;9.506;2023-04-15T01:29:31;96961.31;;;4.79;87.15
7802;BME280;3945;48.952;9.506;2023-04-15T01:31:58;96956.25;;;4.78;87.57
7802;BME280;3945;48.952;9.506;2023-04-15T01:34:24;96956.84;;;4.80;87.20
7802;BME280;3945;48.952;9.506;2023-04-15T01:36:51;96957.63;;;4.80;87.64
7802;BME280;3945;48.952;9.506;2023-04-15T01:39:17;96955.44;;;4.77;87.87
7802;BME280;3945;48.952;9.506;2023-04-15T01:41:43;96951.78;;;4.78;87.51
7802;BME280;3945;48.952;9.506;2023-04-15T01:44:11;96953.63;;;4.78;87.54
7802;BME280;3945;48.952;9.506;2023-04-15T01:46:37;96955.22;;;4.79;87.42
7802;BME280;3945;48.952;9.506;2023-04-15T01:49:04;96955.44;;;4.77;87.35
7802;BME280;3945;48.952;9.506;2023-04-15T01:51:30;96952.25;;;4.75;87.13
7802;BME280;3945;48.952;9.506;2023-04-15T01:53:56;96945.38;;;4.74;87.38
7802;BME280;3945;48.952;9.506;2023-04-15T01:56:23;96950.66;;;4.74;87.41
7802;BME280;3945;48.952;9.506;2023-04-15T01:58:49;96951.91;;;4.71;87.20
7802;BME280;3945;48.952;9.506;2023-04-15T02:01:17;96943.41;;;4.69;87.33
7802;BME280;3945;48.952;9.506;2023-04-15T02:03:44;96946.75;;;4.65;87.18
7802;BME280;3945;48.952;9.506;2023-04-15T02:06:11;96942.97;;;4.61;87.08
7802;BME280;3945;48.952;9.506;2023-04-15T02:08:37;96947.97;;;4.62;87.31
7802;BME280;3945;48.952;9.506;2023-04-15T02:11:04;96951.09;;;4.59;87.13
7802;BME280;3945;48.952;9.506;2023-04-15T02:13:30;96952.69;;;4.60;87.13
7802;BME280;3945;48.952;9.506;2023-04-15T02:15:56;96955.56;;;4.59;86.91
7802;BME280;3945;48.952;9.506;2023-04-15T02:18:25;96957.81;;;4.55;86.74
7802;BME280;3945;48.952;9.506;2023-04-15T02:20:51;96956.00;;;4.56;86.64
7802;BME280;3945;48.952;9.506;2023-04-15T02:23:17;96955.19;;;4.55;86.54
7802;BME280;3945;48.952;9.506;2023-04-15T02:25:44;96962.97;;;4.50;86.46
7802;BME280;3945;48.952;9.506;2023-04-15T02:28:11;96955.75;;;4.46;86.60
7802;BME280;3945;48.952;9.506;2023-04-15T02:30:37;96951.97;;;4.42;85.99
7802;BME280;3945;48.952;9.506;2023-04-15T02:33:04;96957.91;;;4.37;86.33
7802;BME280;3945;48.952;9.506;2023-04-15T02:35:33;96957.41;;;4.28;86.30
7802;BME280;3945;48.952;9.506;2023-04-15T02:38:03;96957.16;;;4.18;86.34
7802;BME280;3945;48.952;9.506;2023-04-15T02:40:29;96949.50;;;4.17;86.85
7802;BME280;3945;48.952;9.506;2023-04-15T02:42:56;96954.19;;;4.15;87.18
7802;BME280;3945;48.952;9.506;2023-04-15T02:45:22;96953.97;;;4.16;87.42
7802;BME280;3945;48.952;9.506;2023-04-15T02:47:51;96952.56;;;4.14;87.42
7802;BME280;3945;48.952;9.506;2023-04-15T02:50:17;96953.47;;;4.08;87.32
7802;BME280;3945;48.952;9.506;2023-04-15T02:52:45;96946.38;;;4.08;86.77
7802;BME280;3945;48.952;9.506;2023-04-15T02:55:11;96949.59;;;4.10;86.81
7802;BME280;3945;48.952;9.506;2023-04-15T02:57:38;96952.66;;;4.07;86.99
7802;BME280;3945;48.952;9.506;2023-04-15T03:00:05;96953.91;;;4.05;86.68
7802;BME280;3945;48.952;9.506;2023-04-15T03:02:33;96953.34;;;4.03;87.01
7802;BME280;3945;48.952;9.506;2023-04-15T03:05:00;96950.13;;;4.01;86.77
7802;BME280;3945;48.952;9.506;2023-04-15T03:07:26;96951.13;;;4.00;86.62
7802;BME280;3945;48.952;9.506;2023-04-15T03:09:54;96953.19;;;3.98;87.12
7802;BME280;3945;48.952;9.506;2023-04-15T03:12:20;96956.72;;;3.91;87.08
7802;BME280;3945;48.952;9.506;2023-04-15T03:14:46;96962.06;;;3.85;86.83
7802;BME280;3945;48.952;9.506;2023-04-15T03:17:13;96959.31;;;3.80;87.53
7802;BME280;3945;48.952;9.506;2023-04-15T03:19:39;96949.00;;;3.78;87.61
7802;BME280;3945;48.952;9.506;2023-04-15T03:22:06;96952.44;;;3.79;87.83
7802;BME280;3945;48.952;9.506;2023-04-15T03:24:32;96953.09;;;3.74;88.83
7802;BME280;3945;48.952;9.506;2023-04-15T03:26:59;96949.88;;;3.72;88.85
7802;BME280;3945;48.952;9.506;2023-04-15T03:29:26;96949.06;;;3.72;89.37
7802;BME280;3945;48.952;9.506;2023-04-15T03:31:52;96954.34;;;3.72;90.30
7802;BME280;3945;48.952;9.506;2023-04-15T03:34:19;96948.06;;;3.73;90.44
7802;BME280;3945;48.952;9.506;2023-04-15T03:36:45;96948.84;;;3.73;90.21
7802;BME280;3945;48.952;9.506;2023-04-15T03:39:11;96939.94;;;3.74;89.79
7802;BME280;3945;48.952;9.506;2023-04-15T03:41:38;96942.34;;;3.76;89.96
7802;BME280;3945;48.952;9.506;2023-04-15T03:44:05;96942.13;;;3.77;90.04
7802;BME280;3945;48.952;9.506;2023-04-15T03:46:32;96941.69;;;3.80;89.89
7802;BME280;3945;48.952;9.506;2023-04-15T03:48:58;96939.41;;;3.84;90.58
7802;BME280;3945;48.952;9.506;2023-04-15T03:51:24;96941.44;;;3.82;90.25
7802;BME280;3945;48.952;9.506;2023-04-15T03:53:51;96940.88;;;3.80;89.77
7802;BME280;3945;48.952;9.506;2023-04-15T03:56:17;96938.25;;;3.80;90.31
7802;BME280;3945;48.952;9.506;2023-04-15T03:58:44;96941.91;;;3.79;89.21
7802;BME280;3945;48.952;9.506;2023-04-15T04:01:12;96936.50;;;3.74;89.68
7802;BME280;3945;48.952;9.506;2023-04-15T04:03:38;96939.56;;;3.71;89.22
7802;BME280;3945;48.952;9.506;2023-04-15T04:06:04;96938.41;;;3.67;89.86
7802;BME280;3945;48.952;9.506;2023-04-15T04:08:31;96934.41;;;3.64;89.80
7802;BME280;3945;48.952;9.506;2023-04-15T04:10:57;96936.44;;;3.62;90.09
7802;BME280;3945;48.952;9.506;2023-04-15T04:13:23;96934.03;;;3.61;90.40
7802;BME280;3945;48.952;9.506;2023-04-15T04:15:50;96942.28;;;3.64;89.43
7802;BME280;3945;48.952;9.506;2023-04-15T04:18:17;96946.75;;;3.64;89.72
7802;BME280;3945;48.952;9.506;2023-04-15T04:20:44;96950.59;;;3.61;90.01
7802;BME280;3945;48.952;9.506;2023-04-15T04:23:10;96949.38;;;3.64;89.40
7802;BME280;3945;48.952;9.506;2023-04-15T04:25:36;96951.78;;;3.65;89.40
7802;BME280;3945;48.952;9.506;2023-04-15T04:28:03;96939.06;;;3.62;88.88
7802;BME280;3945;48.952;9.506;2023-04-15T04:30:29;96947.16;;;3.61;88.72
7802;BME280;3945;48.952;9.506;2023-04-15T04:32:55;96947.63;;;3.58;89.33
7802;BME280;3945;48.952;9.506;2023-04-15T04:35:23;96953.91;;;3.57;88.89
7802;BME280;3945;48.952;9.506;2023-04-15T04:37:49;96957.41;;;3.50;89.42
7802;BME280;3945;48.952;9.506;2023-04-15T04:40:16;96960.66;;;3.52;88.74
7802;BME280;3945;48.952;9.506;2023-04-15T04:42:43;96959.84;;;3.52;89.26
7802;BME280;3945;48.952;9.506;2023-04-15T04:45:09;96955.59;;;3.51;88.56
7802;BME280;3945;48.952;9.506;2023-04-15T04:47:36;96955.59;;;3.51;88.57
7802;BME280;3945;48.952;9.506;2023-04-15T04:50:02;96959.13;;;3.45;89.40
7802;BME280;3945;48.952;9.506;2023-04-15T04:52:30;96960.41;;;3.36;89.26
7802;BME280;3945;48.952;9.506;2023-04-15T04:54:56;96967.13;;;3.32;89.24
7802;BME280;3945;48.952;9.506;2023-04-15T04:57:22;96965.28;;;3.32;90.25
7802;BME280;3945;48.952;9.506;2023-04-15T04:59:49;96965.09;;;3.34;89.28
7802;BME280;3945;48.952;9.506;2023-04-15T05:02:15;96972.97;;;3.34;89.91
7802;BME280;3945;48.952;9.506;2023-04-15T05:04:42;96978.22;;;3.34;89.27
7802;BME280;3945;48.952;9.506;2023-04-15T05:07:08;96977.41;;;3.33;90.13
7802;BME280;3945;48.952;9.506;2023-04-15T05:09:36;96969.75;;;3.32;89.21
7802;BME280;3945;48.952;9.506;2023-04-15T05:12:02;96979.63;;;3.36;90.01
7802;BME280;3945;48.952;9.506;2023-04-15T05:14:29;96980.78;;;3.40;89.10
7802;BME280;3945;48.952;9.506;2023-04-15T05:16:56;96980.78;;;3.40;89.59
7802;BME280;3945;48.952;9.506;2023-04-15T05:19:22;96983.19;;;3.42;88.91
7802;BME280;3945;48.952;9.506;2023-04-15T05:21:48;96979.97;;;3.40;89.86
7802;BME280;3945;48.952;9.506;2023-04-15T05:24:15;96985.25;;;3.40;89.23
7802;BME280;3945;48.952;9.506;2023-04-15T05:26:43;96983.88;;;3.37;89.16
7802;BME280;3945;48.952;9.506;2023-04-15T05:29:09;96980.44;;;3.37;89.18
7802;BME280;3945;48.952;9.506;2023-04-15T05:31:36;96981.53;;;3.29;88.86
7802;BME280;3945;48.952;9.506;2023-04-15T05:34:02;96980.78;;;3.22;89.63
7802;BME280;3945;48.952;9.506;2023-04-15T05:36:29;96982.81;;;3.20;90.33
7802;BME280;3945;48.952;9.506;2023-04-15T05:38:55;96979.03;;;3.16;90.56
7802;BME280;3945;48.952;9.506;2023-04-15T05:41:22;96981.19;;;3.19;90.86
7802;BME280;3945;48.952;9.506;2023-04-15T05:43:49;96983.13;;;3.30;92.47
7802;BME280;3945;48.952;9.506;2023-04-15T05:46:16;96985.47;;;3.38;92.45
7802;BME280;3945;48.952;9.506;2023-04-15T05:48:42;96985.41;;;3.45;92.77
7802;BME280;3945;48.952;9.506;2023-04-15T05:51:08;96980.41;;;3.55;92.83
7802;BME280;3945;48.952;9.506;2023-04-15T05:53:35;96990.22;;;3.66;93.10
7802;BME280;3945;48.952;9.506;2023-04-15T05:56:01;96986.53;;;3.85;93.67
7802;BME280;3945;48.952;9.506;2023-04-15T05:58:28;96985.06;;;4.08;94.33
7802;BME280;3945;48.952;9.506;2023-04-15T06:00:55;96982.25;;;4.32;94.74
7802;BME280;3945;48.952;9.506;2023-04-15T06:03:22;96985.66;;;4.63;94.09
7802;BME280;3945;48.952;9.506;2023-04-15T06:05:48;96984.56;;;4.94;94.61
7802;BME280;3945;48.952;9.506;2023-04-15T06:08:17;96988.25;;;5.28;93.55
7802;BME280;3945;48.952;9.506;2023-04-15T06:10:43;96994.28;;;5.63;92.22
7802;BME280;3945;48.952;9.506;2023-04-15T06:13:10;96987.25;;;5.92;90.08
7802;BME280;3945;48.952;9.506;2023-04-15T06:15:37;96993.13;;;6.22;89.53
7802;BME280;3945;48.952;9.506;2023-04-15T06:18:04;96980.69;;;6.51;87.64
7802;BME280;3945;48.952;9.506;2023-04-15T06:20:30;96983.78;;;6.77;86.33
7802;BME280;3945;48.952;9.506;2023-04-15T06:22:57;96988.03;;;6.94;84.79
7802;BME280;3945;48.952;9.506;2023-04-15T06:25:23;96994.41;;;7.15;85.07
7802;BME280;3945;48.952;9.506;2023-04-15T06:27:50;96993.78;;;7.41;83.53
7802;BME280;3945;48.952;9.506;2023-04-15T06:30:16;96993.00;;;7.63;82.67
7802;BME280;3945;48.952;9.506;2023-04-15T06:32:42;97000.97;;;7.84;81.56
7802;BME280;3945;48.952;9.506;2023-04-15T06:35:10;97002.25;;;8.04;80.73
7802;BME280;3945;48.952;9.506;2023-04-15T06:37:36;97004.97;;;8.31;78.56
7802;BME280;3945;48.952;9.506;2023-04-15T06:40:03;97004.13;;;8.52;78.46
7802;BME280;3945;48.952;9.506;2023-04-15T06:42:29;97003.22;;;8.68;78.45
7802;BME280;3945;48.952;9.506;2023-04-15T06:44:56;97006.56;;;8.85;78.61
7802;BME280;3945;48.952;9.506;2023-04-15T06:47:22;97002.44;;;8.99;77.00
7802;BME280;3945;48.952;9.506;2023-04-15T06:49:49;97002.22;;;9.06;77.48
7802;BME280;3945;48.952;9.506;2023-04-15T06:52:16;97003.09;;;9.17;78.02
7802;BME280;3945;48.952;9.506;2023-04-15T06:54:43;97003.16;;;9.22;76.32
7802;BME280;3945;48.952;9.506;2023-04-15T06:57:09;97002.34;;;9.21;77.97
7802;BME280;3945;48.952;9.506;2023-04-15T06:59:36;97003.66;;;9.24;77.99
7802;BME280;3945;48.952;9.506;2023-04-15T07:02:02;97001.31;;;9.27;77.49
7802;BME280;3945;48.952;9.506;2023-04-15T07:04:28;97008.47;;;9.27;78.33
7802;BME280;3945;48.952;9.506;2023-04-15T07:06:55;97003.72;;;9.29;79.05
7802;BME280;3945;48.952;9.506;2023-04-15T07:09:23;97003.97;;;9.27;78.90
7802;BME280;3945;48.952;9.506;2023-04-15T07:11:49;97004.22;;;9.26;78.27
7802;BME280;3945;48.952;9.506;2023-04-15T07:14:16;97000.53;;;9.27;78.66
7802;BME280;3945;48.952;9.506;2023-04-15T07:16:43;97002.72;;;9.35;77.57
7802;BME280;3945;48.952;9.506;2023-04-15T07:19:09;97003.84;;;9.49;79.02
7802;BME280;3945;48.952;9.506;2023-04-15T07:21:36;97002.13;;;9.75;79.18
7802;BME280;3945;48.952;9.506;2023-04-15T07:24:03;97006.50;;;10.01;77.82
7802;BME280;3945;48.952;9.506;2023-04-15T07:26:31;96998.06;;;10.14;76.37
7802;BME280;3945;48.952;9.506;2023-04-15T07:28:57;97000.53;;;10.26;75.53
7802;BME280;3945;48.952;9.506;2023-04-15T07:31:23;97001.88;;;10.39;75.91
7802;BME280;3945;48.952;9.506;2023-04-15T07:33:50;97006.69;;;10.47;74.50
7802;BME280;3945;48.952;9.506;2023-04-15T07:36:16;97005.38;;;10.49;74.38
7802;BME280;3945;48.952;9.506;2023-04-15T07:38:43;97004.31;;;10.61;75.41
7802;BME280;3945;48.952;9.506;2023-04-15T07:41:10;96996.13;;;10.98;75.89
7802;BME280;3945;48.952;9.506;2023-04-15T07:43:37;96990.72;;;11.53;75.75
7802;BME280;3945;48.952;9.506;2023-04-15T07:46:04;96990.88;;;12.07;72.38
7802;BME280;3945;48.952;9.506;2023-04-15T07:48:30;96992.22;;;12.59;71.06
7802;BME280;3945;48.952;9.506;2023-04-15T07:50:57;96988.81;;;12.87;67.82
7802;BME280;3945;48.952;9.506;2023-04-15T07:53:24;96989.31;;;12.95;64.96
7802;BME280;3945;48.952;9.506;2023-04-15T07:55:51;96996.84;;;12.87;60.37
7802;BME280;3945;48.952;9.506;2023-04-15T07:58:17;96999.56;;;12.77;61.62
7802;BME280;3945;48.952;9.506;2023-04-15T08:00:44;96997.75;;;12.73;62.36
7802;BME280;3945;48.952;9.506;2023-04-15T08:03:11;96993.44;;;12.77;61.92
7802;BME280;3945;48.952;9.506;2023-04-15T08:05:37;96995.78;;;12.83;61.47
7802;BME280;3945;48.952;9.506;2023-04-15T08:08:03;96989.06;;;12.91;60.35
7802;BME280;3945;48.952;9.506;2023-04-15T08:10:30;96985.09;;;12.88;62.32
7802;BME280;3945;48.952;9.506;2023-04-15T08:12:56;96990.44;;;12.83;60.94
7802;BME280;3945;48.952;9.506;2023-04-15T08:15:22;96985.69;;;12.75;59.45
7802;BME280;3945;48.952;9.506;2023-04-15T08:17:50;96988.66;;;12.69;59.29
7802;BME280;3945;48.952;9.506;2023-04-15T08:20:16;96991.38;;;12.64;60.27
7802;BME280;3945;48.952;9.506;2023-04-15T08:22:43;96991.66;;;12.62;60.63
7802;BME280;3945;48.952;9.506;2023-04-15T08:25:11;96990.25;;;12.75;63.75
7802;BME280;3945;48.952;9.506;2023-04-15T08:27:38;96988.25;;;12.90;63.73
7802;BME280;3945;48.952;9.506;2023-04-15T08:30:05;96984.97;;;13.04;61.45
7802;BME280;3945;48.952;9.506;2023-04-15T08:32:32;96993.47;;;13.06;60.56
7802;BME280;3945;48.952;9.506;2023-04-15T08:34:59;96988.38;;;13.14;62.20
7802;BME280;3945;48.952;9.506;2023-04-15T08:37:26;96986.97;;;13.22;61.41
7802;BME280;3945;48.952;9.506;2023-04-15T08:39:52;96989.59;;;13.27;61.10
7802;BME280;3945;48.952;9.506;2023-04-15T08:42:21;96985.56;;;13.29;62.31
7802;BME280;3945;48.952;9.506;2023-04-15T08:44:48;96991.06;;;13.43;61.20
7802;BME280;3945;48.952;9.506;2023-04-15T08:47:16;96991.38;;;13.65;60.91
7802;BME280;3945;48.952;9.506;2023-04-15T08:49:45;96987.50;;;14.00;59.17
7802;BME280;3945;48.952;9.506;2023-04-15T08:52:19;96985.19;;;14.36;59.92
7802;BME280;3945;48.952;9.506;2023-04-15T08:54:46;96980.22;;;14.49;56.80
7802;BME280;3945;48.952;9.506;2023-04-15T08:57:13;96977.94;;;14.61;57.97
7802;BME280;3945;48.952;9.506;2023-04-15T08:59:40;96976.47;;;14.87;57.13
7802;BME280;3945;48.952;9.506;2023-04-15T09:02:06;96973.97;;;15.09;57.10
7802;BME280;3945;48.952;9.506;2023-04-15T09:04:33;96980.44;;;15.22;54.55
7802;BME280;3945;48.952;9.506;2023-04-15T09:07:00;96977.34;;;15.15;55.28
7802;BME280;3945;48.952;9.506;2023-04-15T09:09:28;96975.72;;;15.00;56.53
7802;BME280;3945;48.952;9.506;2023-04-15T09:11:54;96978.41;;;15.00;55.58
7802;BME280;3945;48.952;9.506;2023-04-15T09:14:20;96973.88;;;15.14;58.86
7802;BME280;3945;48.952;9.506;2023-04-15T09:16:56;96979.91;;;15.39;58.60
7802;BME280;3945;48.952;9.506;2023-04-15T09:19:23;96984.16;;;15.72;57.85
7802;BME280;3945;48.952;9.506;2023-04-15T09:21:49;96986.53;;;16.15;58.62
7802;BME280;3945;48.952;9.506;2023-04-15T09:24:16;96975.47;;;16.44;53.28
7802;BME280;3945;48.952;9.506;2023-04-15T09:26:43;96984.44;;;16.39;51.91
7802;BME280;3945;48.952;9.506;2023-04-15T09:29:10;96989.16;;;16.06;52.40
7802;BME280;3945;48.952;9.506;2023-04-15T09:31:37;96995.63;;;15.91;54.56
7802;BME280;3945;48.952;9.506;2023-04-15T09:34:04;96993.00;;;15.86;55.51
7802;BME280;3945;48.952;9.506;2023-04-15T09:36:35;96988.53;;;15.95;56.52
7802;BME280;3945;48.952;9.506;2023-04-15T09:39:03;96990.44;;;16.09;55.34
7802;BME280;3945;48.952;9.506;2023-04-15T09:41:29;96994.50;;;16.20;55.90
7802;BME280;3945;48.952;9.506;2023-04-15T09:43:57;96991.84;;;16.20;53.72
7802;BME280;3945;48.952;9.506;2023-04-15T09:49:06;96989.00;;;16.38;53.99
7802;BME280;3945;48.952;9.506;2023-04-15T09:51:33;96986.88;;;16.13;49.67
7802;BME280;3945;48.952;9.506;2023-04-15T09:54:00;96991.44;;;15.99;51.10
7802;BME280;3945;48.952;9.506;2023-04-15T09:56:30;96982.19;;;15.91;51.59
7802;BME280;3945;48.952;9.506;2023-04-15T09:58:58;96990.81;;;15.75;49.34
7802;BME280;3945;48.952;9.506;2023-04-15T10:01:25;96998.75;;;15.66;50.78
7802;BME280;3945;48.952;9.506;2023-04-15T10:03:51;96995.22;;;15.52;50.39
7802;BME280;3945;48.952;9.506;2023-04-15T10:06:19;96998.03;;;15.28;49.73
7802;BME280;3945;48.952;9.506;2023-04-15T10:08:45;96996.41;;;15.13;50.99
7802;BME280;3945;48.952;9.506;2023-04-15T10:11:12;97004.94;;;14.83;49.80
7802;BME280;3945;48.952;9.506;2023-04-15T10:13:39;97007.47;;;14.74;50.73
7802;BME280;3945;48.952;9.506;2023-04-15T10:16:09;97008.38;;;14.65;52.29
7802;BME280;3945;48.952;9.506;2023-04-15T10:18:37;97006.06;;;14.77;52.49
7802;BME280;3945;48.952;9.506;2023-04-15T10:21:03;97010.94;;;14.75;51.42
7802;BME280;3945;48.952;9.506;2023-04-15T10:23:31;97013.88;;;14.92;53.21
7802;BME280;3945;48.952;9.506;2023-04-15T10:25:57;97012.00;;;15.11;53.10
7802;BME280;3945;48.952;9.506;2023-04-15T10:28:24;97015.09;;;15.18;51.00
7802;BME280;3945;48.952;9.506;2023-04-15T10:30:51;97019.78;;;15.27;50.83
7802;BME280;3945;48.952;9.506;2023-04-15T10:33:20;97011.25;;;15.24;50.27
7802;BME280;3945;48.952;9.506;2023-04-15T10:35:47;97013.31;;;15.28;50.87
7802;BME280;3945;48.952;9.506;2023-04-15T10:38:31;97022.16;;;15.28;51.45
7802;BME280;3945;48.952;9.506;2023-04-15T10:41:10;97016.00;;;15.28;50.54
7802;BME280;3945;48.952;9.506;2023-04-15T10:43:36;97021.72;;;15.40;51.65
7802;BME280;3945;48.952;9.506;2023-04-15T10:46:04;97026.59;;;15.51;51.91
7802;BME280;3945;48.952;9.506;2023-04-15T10:48:32;97020.09;;;15.57;51.66
7802;BME280;3945;48.952;9.506;2023-04-15T10:50:59;97020.44;;;15.51;50.19
7802;BME280;3945;48.952;9.506;2023-04-15T10:53:27;97030.63;;;15.54;51.26
7802;BME280;3945;48.952;9.506;2023-04-15T10:55:53;97031.94;;;15.38;50.13
7802;BME280;3945;48.952;9.506;2023-04-15T10:58:24;97031.31;;;15.08;50.38
7802;BME280;3945;48.952;9.506;2023-04-15T11:00:57;97038.06;;;15.06;51.16
7802;BME280;3945;48.952;9.506;2023-04-15T11:03:42;97038.81;;;14.74;51.86
7802;BME280;3945;48.952;9.506;2023-04-15T11:06:11;97025.97;;;14.71;52.45
7802;BME280;3945;48.952;9.506;2023-04-15T11:08:54;97033.28;;;14.65;51.36
7802;BME280;3945;48.952;9.506;2023-04-15T11:11:21;97022.66;;;14.60;53.02
7802;BME280;3945;48.952;9.506;2023-04-15T11:13:48;97034.66;;;14.63;52.21
7802;BME280;3945;48.952;9.506;2023-04-15T11:16:16;97035.50;;;14.39;50.64
7802;BME280;3945;48.952;9.506;2023-04-15T11:18:53;97036.28;;;14.16;51.83
7802;BME280;3945;48.952;9.506;2023-04-15T11:21:24;97040.22;;;14.00;52.81
7802;BME280;3945;48.952;9.506;2023-04-15T11:23:58;97041.28;;;13.99;53.59
7802;BME280;3945;48.952;9.506;2023-04-15T11:26:25;97046.41;;;13.95;53.86
7802;BME280;3945;48.952;9.506;2023-04-15T11:28:51;97046.25;;;13.87;54.80
7802;BME280;3945;48.952;9.506;2023-04-15T11:31:18;97048.53;;;13.69;54.29
7802;BME280;3945;48.952;9.506;2023-04-15T11:33:54;97061.06;;;13.74;55.62
7802;BME280;3945;48.952;9.506;2023-04-15T11:36:22;97058.69;;;13.73;54.46
7802;BME280;3945;48.952;9.506;2023-04-15T11:38:50;97061.41;;;13.67;55.56
7802;BME280;3945;48.952;9.506;2023-04-15T11:41:19;97061.69;;;13.66;56.82
7802;BME280;3945;48.952;9.506;2023-04-15T11:43:47;97069.66;;;13.71;56.30
7802;BME280;3945;48.952;9.506;2023-04-15T11:46:19;97063.69;;;13.79;56.38
7802;BME280;3945;48.952;9.506;2023-04-15T11:48:45;97057.66;;;13.68;53.51
7802;BME280;3945;48.952;9.506;2023-04-15T11:51:13;97071.06;;;13.63;54.85
7802;BME280;3945;48.952;9.506;2023-04-15T11:53:41;97076.59;;;13.72;56.01
7802;BME280;3945;48.952;9.506;2023-04-15T11:56:09;97066.91;;;13.81;56.33
7802;BME280;3945;48.952;9.506;2023-04-15T11:58:39;97067.81;;;13.95;53.95
7802;BME280;3945;48.952;9.506;2023-04-15T12:01:06;97076.53;;;14.06;54.58
7802;BME280;3945;48.952;9.506;2023-04-15T12:03:37;97071.03;;;13.97;47.84
7802;BME280;3945;48.952;9.506;2023-04-15T12:06:08;97073.91;;;14.01;49.79
7802;BME280;3945;48.952;9.506;2023-04-15T12:08:55;97068.00;;;14.04;50.97
7802;BME280;3945;48.952;9.506;2023-04-15T12:11:27;97076.97;;;14.13;52.76
7802;BME280;3945;48.952;9.506;2023-04-15T12:13:54;97087.88;;;14.22;51.72
7802;BME280;3945;48.952;9.506;2023-04-15T12:16:22;97073.34;;;14.28;50.88
7802;BME280;3945;48.952;9.506;2023-04-15T12:18:50;97080.00;;;14.30;52.97
7802;BME280;3945;48.952;9.506;2023-04-15T12:21:27;97085.28;;;14.35;53.75
7802;BME280;3945;48.952;9.506;2023-04-15T12:24:02;97080.28;;;14.29;51.38
7802;BME280;3945;48.952;9.506;2023-04-15T12:26:30;97090.19;;;14.28;52.97
7802;BME280;3945;48.952;9.506;2023-04-15T12:29:01;97092.38;;;14.26;51.45
7802;BME280;3945;48.952;9.506;2023-04-15T12:31:50;97099.88;;;14.24;51.95
7802;BME280;3945;48.952;9.506;2023-04-15T12:34:16;97103.41;;;14.20;51.72
7802;BME280;3945;48.952;9.506;2023-04-15T12:36:44;97109.84;;;14.19;53.34
7802;BME280;3945;48.952;9.506;2023-04-15T12:39:12;97108.28;;;14.13;52.66
7802;BME280;3945;48.952;9.506;2023-04-15T12:41:38;97117.13;;;14.13;52.67
7802;BME280;3945;48.952;9.506;2023-04-15T12:44:05;97114.44;;;14.13;52.11
7802;BME280;3945;48.952;9.506;2023-04-15T12:46:31;97128.44;;;14.05;50.02
7802;BME280;3945;48.952;9.506;2023-04-15T12:48:57;97136.31;;;13.91;49.42
7802;BME280;3945;48.952;9.506;2023-04-15T12:51:24;97135.16;;;13.74;50.01
7802;BME280;3945;48.952;9.506;2023-04-15T12:53:51;97151.25;;;13.63;49.85
7802;BME280;3945;48.952;9.506;2023-04-15T12:56:19;97145.72;;;13.55;49.16
7802;BME280;3945;48.952;9.506;2023-04-15T12:58:45;97154.34;;;13.47;50.66
7802;BME280;3945;48.952;9.506;2023-04-15T13:01:11;97153.03;;;13.44;51.02
7802;BME280;3945;48.952;9.506;2023-04-15T13:03:38;97155.19;;;13.37;49.76
7802;BME280;3945;48.952;9.506;2023-04-15T13:06:04;97155.81;;;13.24;48.35
7802;BME280;3945;48.952;9.506;2023-04-15T13:08:31;97161.44;;;13.22;49.46
7802;BME280;3945;48.952;9.506;2023-04-15T13:10:57;97159.81;;;13.26;50.48
7802;BME280;3945;48.952;9.506;2023-04-15T13:13:25;97164.91;;;13.23;49.87
7802;BME280;3945;48.952;9.506;2023-04-15T13:15:52;97161.75;;;13.16;50.13
7802;BME280;3945;48.952;9.506;2023-04-15T13:18:18;97175.38;;;13.09;47.48
7802;BME280;3945;48.952;9.506;2023-04-15T13:20:46;97171.69;;;13.00;46.69
7802;BME280;3945;48.952;9.506;2023-04-15T13:23:13;97176.25;;;12.95;49.30
7802;BME280;3945;48.952;9.506;2023-04-15T13:25:39;97179.19;;;12.93;48.58
7802;BME280;3945;48.952;9.506;2023-04-15T13:28:06;97181.84;;;12.93;48.22
7802;BME280;3945;48.952;9.506;2023-04-15T13:30:36;97195.75;;;12.95;48.64